Time;durP1;ratioP1;P1;durP2;ratioP2;P2;SDS_P1;SDS_P2;PMS_P1;PMS_P2;Temp;Humidity;BMP_temperature;BMP_pressure;BME280_temperature;BME280_humidity;BME280_pressure;Samples;Min_cycle;Max_cycle;Signal;HPM_P1;HPM_P2
2023/10/24 00:02:07;;;;;;;5.40;4.47;;;12.80;99.90;;;;;;5031582;28;20222;-53
2023/10/24 00:04:34;;;;;;;7.10;5.30;;;12.90;99.90;;;;;;5030203;28;20233;-53
2023/10/24 00:07:01;;;;;;;5.10;4.10;;;12.80;99.90;;;;;;5031522;28;20285;-53
2023/10/24 00:09:27;;;;;;;6.97;4.57;;;12.70;99.90;;;;;;5030614;28;20210;-53
2023/10/24 00:11:54;;;;;;;7.70;4.63;;;12.70;99.90;;;;;;5030740;28;20218;-53
2023/10/24 00:14:21;;;;;;;5.13;4.63;;;12.70;99.90;;;;;;5031138;28;20252;-53
2023/10/24 00:16:50;;;;;;;7.33;4.63;;;12.70;99.90;;;;;;5027812;28;20655;-53
2023/10/24 00:19:17;;;;;;;5.57;5.10;;;12.70;99.90;;;;;;5031331;28;20736;-53
2023/10/24 00:21:43;;;;;;;6.93;5.03;;;12.70;99.90;;;;;;5031172;28;20273;-53
2023/10/24 00:24:11;;;;;;;6.07;4.60;;;12.80;99.90;;;;;;5031155;28;20198;-53
2023/10/24 00:26:38;;;;;;;5.27;4.87;;;12.80;99.90;;;;;;5021443;28;20229;-53
2023/10/24 00:29:05;;;;;;;4.40;4.00;;;12.80;99.90;;;;;;5025670;28;20199;-53
2023/10/24 00:31:32;;;;;;;5.03;4.70;;;12.70;99.90;;;;;;5031160;28;20724;-53
2023/10/24 00:34:00;;;;;;;4.47;4.20;;;12.60;99.90;;;;;;5030797;28;20206;-53
2023/10/24 00:36:27;;;;;;;5.07;4.10;;;12.60;99.90;;;;;;5031196;28;20272;-53
2023/10/24 00:38:54;;;;;;;4.23;3.83;;;12.50;99.90;;;;;;5030276;28;20553;-53
2023/10/24 00:41:21;;;;;;;5.70;4.00;;;12.50;99.90;;;;;;5021217;28;20272;-53
2023/10/24 00:43:48;;;;;;;7.23;4.87;;;12.40;99.90;;;;;;5029830;28;20267;-53
2023/10/24 00:46:15;;;;;;;4.37;3.97;;;12.40;99.90;;;;;;5030319;28;20217;-53
2023/10/24 00:48:43;;;;;;;7.47;4.90;;;12.30;99.90;;;;;;5031007;28;20264;-53
2023/10/24 00:51:12;;;;;;;5.00;4.50;;;12.40;99.90;;;;;;5053573;22;20253;-57
2023/10/24 00:53:39;;;;;;;3.97;3.67;;;12.40;99.90;;;;;;5035823;28;20202;-56
2023/10/24 00:56:06;;;;;;;4.40;4.00;;;12.30;99.90;;;;;;5030303;28;20227;-57
2023/10/24 00:58:34;;;;;;;4.83;3.60;;;12.30;99.90;;;;;;5029063;28;20272;-57
2023/10/24 01:01:02;;;;;;;8.93;4.77;;;12.20;99.90;;;;;;5029919;28;20243;-57
2023/10/24 01:03:29;;;;;;;8.30;4.73;;;12.20;99.90;;;;;;5027966;28;20206;-57
2023/10/24 01:06:00;;;;;;;5.03;4.70;;;12.30;99.90;;;;;;5030366;28;20201;-57
2023/10/24 01:08:29;;;;;;;6.20;4.47;;;12.30;99.90;;;;;;5030148;28;20202;-57
2023/10/24 01:10:56;;;;;;;5.33;4.37;;;12.40;99.90;;;;;;5029924;28;20210;-57
2023/10/24 01:13:23;;;;;;;5.23;4.73;;;12.40;99.90;;;;;;5027599;28;20252;-57
2023/10/24 01:15:50;;;;;;;6.20;4.97;;;12.30;99.90;;;;;;5022276;28;20257;-56
2023/10/24 01:18:16;;;;;;;4.80;4.43;;;12.20;99.90;;;;;;5029730;28;20206;-57
2023/10/24 01:20:44;;;;;;;6.33;5.00;;;12.20;99.90;;;;;;5030062;28;20673;-57
2023/10/24 01:23:12;;;;;;;4.57;4.20;;;12.20;99.90;;;;;;5030276;28;20226;-57
2023/10/24 01:25:40;;;;;;;4.70;4.23;;;12.10;99.90;;;;;;5034211;28;20205;-57
2023/10/24 01:28:08;;;;;;;3.93;3.63;;;12.00;99.90;;;;;;5032987;28;20201;-57
2023/10/24 01:30:35;;;;;;;5.00;4.60;;;12.00;99.90;;;;;;5031906;28;20312;-58
2023/10/24 01:33:02;;;;;;;5.17;4.43;;;12.00;99.90;;;;;;5033170;28;20245;-57
2023/10/24 01:35:29;;;;;;;5.27;4.20;;;12.00;99.90;;;;;;5033857;28;20202;-57
2023/10/24 01:37:56;;;;;;;5.50;4.77;;;12.00;99.90;;;;;;5033758;28;20209;-58
2023/10/24 01:40:24;;;;;;;5.03;4.53;;;12.00;99.90;;;;;;5032390;28;20202;-57
2023/10/24 01:42:51;;;;;;;4.97;4.57;;;12.00;99.90;;;;;;5032777;28;20218;-57
2023/10/24 01:45:20;;;;;;;5.20;4.70;;;12.00;99.90;;;;;;5033332;28;20545;-57
2023/10/24 01:47:47;;;;;;;5.70;5.13;;;12.00;99.90;;;;;;5024259;28;20284;-57
2023/10/24 01:50:14;;;;;;;4.60;4.20;;;12.10;99.90;;;;;;5031520;28;20209;-57
2023/10/24 01:52:40;;;;;;;5.37;4.23;;;12.00;99.90;;;;;;5024116;28;20222;-57
2023/10/24 01:55:08;;;;;;;4.63;4.33;;;12.10;99.90;;;;;;5031207;28;20691;-57
2023/10/24 01:57:36;;;;;;;6.90;5.13;;;12.10;99.90;;;;;;5029333;28;20294;-57
2023/10/24 02:00:04;;;;;;;5.07;4.67;;;12.10;99.90;;;;;;5031164;28;20201;-57
2023/10/24 02:02:31;;;;;;;6.03;5.30;;;12.10;99.90;;;;;;5030944;28;20313;-57
2023/10/24 02:04:58;;;;;;;10.83;5.60;;;12.10;99.90;;;;;;5032672;28;20249;-57
2023/10/24 02:07:27;;;;;;;8.93;5.37;;;12.10;99.90;;;;;;5031808;28;20253;-57
2023/10/24 02:09:54;;;;;;;6.40;5.80;;;12.10;99.90;;;;;;5032996;28;20210;-57
2023/10/24 02:12:23;;;;;;;6.17;5.47;;;12.10;99.90;;;;;;5032654;28;20223;-57
2023/10/24 02:14:51;;;;;;;6.33;5.60;;;12.10;99.90;;;;;;5032505;28;20515;-57
2023/10/24 02:17:18;;;;;;;7.30;5.33;;;12.10;99.90;;;;;;5032775;28;20205;-56
2023/10/24 02:19:45;;;;;;;6.03;5.33;;;12.10;99.90;;;;;;5028827;28;20283;-57
2023/10/24 02:22:12;;;;;;;5.60;5.17;;;12.10;99.90;;;;;;5031542;28;20225;-57
2023/10/24 02:24:39;;;;;;;5.20;4.70;;;12.10;99.90;;;;;;5032189;28;20657;-56
2023/10/24 02:27:06;;;;;;;7.03;5.67;;;12.00;99.90;;;;;;5030788;28;20259;-57
2023/10/24 02:29:34;;;;;;;6.63;5.10;;;12.00;99.90;;;;;;5032295;28;20259;-58
2023/10/24 02:32:02;;;;;;;5.67;4.90;;;12.00;99.90;;;;;;5031562;28;20302;-57
2023/10/24 02:34:29;;;;;;;4.20;3.90;;;11.80;99.90;;;;;;5031603;28;20208;-58
2023/10/24 02:36:56;;;;;;;5.97;4.80;;;11.80;99.90;;;;;;5032028;28;20682;-57
2023/10/24 02:39:23;;;;;;;5.23;4.93;;;11.80;99.90;;;;;;5032438;28;20204;-57
2023/10/24 02:41:50;;;;;;;6.40;5.30;;;11.80;99.90;;;;;;5030701;28;20606;-57
2023/10/24 02:44:19;;;;;;;5.30;4.80;;;11.70;99.90;;;;;;5029703;28;20260;-57
2023/10/24 02:46:46;;;;;;;4.23;3.83;;;11.60;99.90;;;;;;5031470;28;20241;-57
2023/10/24 02:49:15;;;;;;;4.30;4.00;;;11.60;99.90;;;;;;5032515;28;20255;-57
2023/10/24 02:51:42;;;;;;;4.30;4.00;;;11.60;99.90;;;;;;5031218;28;20263;-57
2023/10/24 02:54:09;;;;;;;4.30;3.90;;;11.50;99.90;;;;;;5032079;28;20205;-57
2023/10/24 02:56:36;;;;;;;5.17;4.60;;;11.50;99.90;;;;;;5031182;28;20724;-59
2023/10/24 02:59:03;;;;;;;4.10;3.87;;;11.50;99.90;;;;;;5030497;28;20252;-59
2023/10/24 03:01:29;;;;;;;4.43;3.43;;;11.50;99.90;;;;;;5031905;28;20231;-60
2023/10/24 03:03:56;;;;;;;4.13;3.67;;;11.50;99.90;;;;;;5031717;28;20264;-59
2023/10/24 03:06:25;;;;;;;3.80;3.50;;;11.50;99.90;;;;;;5031985;28;20252;-59
2023/10/24 03:08:52;;;;;;;4.40;3.97;;;11.40;99.90;;;;;;5030214;28;20262;-59
2023/10/24 03:11:23;;;;;;;5.13;3.60;;;11.40;99.90;;;;;;5028565;28;20218;-59
2023/10/24 03:13:50;;;;;;;6.77;4.33;;;11.50;99.90;;;;;;5029743;28;20294;-59
2023/10/24 03:16:17;;;;;;;4.57;4.17;;;11.50;99.90;;;;;;5031803;28;20205;-60
2023/10/24 03:18:44;;;;;;;5.93;5.23;;;11.50;99.90;;;;;;5031731;28;20315;-59
2023/10/24 03:21:11;;;;;;;7.80;3.73;;;11.50;99.90;;;;;;5030992;28;20202;-59
2023/10/24 03:23:41;;;;;;;4.00;3.80;;;11.50;99.90;;;;;;5030853;28;20288;-59
2023/10/24 03:26:08;;;;;;;4.57;4.20;;;11.50;99.90;;;;;;5030480;28;20292;-59
2023/10/24 03:28:35;;;;;;;7.10;4.10;;;11.50;99.90;;;;;;5031199;28;20204;-59
2023/10/24 03:31:03;;;;;;;5.77;3.83;;;11.50;99.90;;;;;;5029251;28;20228;-59
2023/10/24 03:33:31;;;;;;;5.07;4.47;;;11.60;99.90;;;;;;5029446;28;20284;-59
2023/10/24 03:36:02;;;;;;;6.97;5.30;;;11.60;99.90;;;;;;5031112;28;20234;-59
2023/10/24 03:38:29;;;;;;;11.53;4.80;;;11.70;99.90;;;;;;5031151;28;20285;-59
2023/10/24 03:41:01;;;;;;;5.43;5.10;;;11.70;99.90;;;;;;5030910;28;20234;-60
2023/10/24 03:43:28;;;;;;;4.50;4.07;;;11.80;99.90;;;;;;5030640;28;20216;-59
2023/10/24 03:45:59;;;;;;;6.67;4.63;;;11.80;99.90;;;;;;5028864;28;20663;-59
2023/10/24 03:48:26;;;;;;;7.80;4.87;;;11.80;99.90;;;;;;5029936;28;20203;-57
2023/10/24 03:50:53;;;;;;;6.17;5.17;;;11.90;99.90;;;;;;5030820;28;20264;-56
2023/10/24 03:53:20;;;;;;;5.43;4.93;;;11.80;99.90;;;;;;5030112;28;20206;-57
2023/10/24 03:55:58;;;;;;;9.23;5.33;;;11.80;99.90;;;;;;5032285;28;20199;-56
2023/10/24 03:58:26;;;;;;;5.97;5.47;;;11.80;99.90;;;;;;5030750;28;20622;-57
2023/10/24 04:00:53;;;;;;;7.40;5.40;;;11.70;99.90;;;;;;5030396;28;20206;-56
2023/10/24 04:03:20;;;;;;;5.93;5.30;;;11.70;99.90;;;;;;5028961;28;20218;-56
2023/10/24 04:05:47;;;;;;;5.10;4.67;;;11.70;99.90;;;;;;5030564;28;20566;-57
2023/10/24 04:08:14;;;;;;;6.33;5.67;;;11.70;99.90;;;;;;5030442;28;20305;-58
2023/10/24 04:10:41;;;;;;;10.50;5.83;;;11.70;99.90;;;;;;5030412;28;20205;-56
2023/10/24 04:13:10;;;;;;;8.23;5.03;;;11.70;99.90;;;;;;5029874;28;20643;-57
2023/10/24 04:15:37;;;;;;;4.33;4.10;;;11.70;99.90;;;;;;5030304;28;20704;-57
2023/10/24 04:18:04;;;;;;;7.53;5.37;;;11.70;99.90;;;;;;5027492;28;20265;-57
2023/10/24 04:20:31;;;;;;;4.93;4.53;;;11.60;99.90;;;;;;5029208;28;20258;-57
2023/10/24 04:23:02;;;;;;;6.10;5.53;;;11.60;99.90;;;;;;5029500;28;20221;-57
2023/10/24 04:25:30;;;;;;;7.27;5.27;;;11.50;99.90;;;;;;5029842;28;20205;-57
2023/10/24 04:27:58;;;;;;;7.33;5.77;;;11.60;99.90;;;;;;5029336;28;20237;-57
2023/10/24 04:30:26;;;;;;;17.30;5.60;;;11.60;99.90;;;;;;5023233;28;20198;-57
2023/10/24 04:32:55;;;;;;;7.10;6.07;;;11.60;99.90;;;;;;5027091;28;20279;-57
2023/10/24 04:35:21;;;;;;;6.47;5.87;;;11.50;99.90;;;;;;5029834;28;20209;-57
2023/10/24 04:37:49;;;;;;;5.70;5.33;;;11.60;99.90;;;;;;5030102;28;20197;-58
2023/10/24 04:40:16;;;;;;;8.87;6.07;;;11.70;99.90;;;;;;5029886;28;20248;-57
2023/10/24 04:42:43;;;;;;;12.93;11.63;;;11.80;99.90;;;;;;5030107;28;20332;-57
2023/10/24 04:45:10;;;;;;;7.50;6.90;;;11.80;99.90;;;;;;5029723;28;20260;-57
2023/10/24 04:47:39;;;;;;;11.47;7.90;;;11.80;99.90;;;;;;5026498;28;20207;-56
2023/10/24 04:50:07;;;;;;;11.30;7.30;;;11.80;99.90;;;;;;5029825;28;20553;-56
2023/10/24 04:52:34;;;;;;;7.47;6.47;;;11.80;99.90;;;;;;5032237;28;20708;-58
2023/10/24 04:55:01;;;;;;;7.03;6.43;;;11.80;99.90;;;;;;5029587;28;20676;-59
2023/10/24 04:57:30;;;;;;;7.80;7.00;;;11.50;99.90;;;;;;5027233;28;20242;-59
2023/10/24 04:59:58;;;;;;;7.83;7.27;;;11.80;99.90;;;;;;5028059;28;20201;-59
2023/10/24 05:02:25;;;;;;;7.47;6.77;;;11.90;99.90;;;;;;5026946;28;20232;-59
2023/10/24 05:04:54;;;;;;;7.40;6.80;;;11.80;99.90;;;;;;5028480;28;20618;-59
2023/10/24 05:07:21;;;;;;;12.40;7.10;;;11.80;99.90;;;;;;5029561;28;20205;-59
2023/10/24 05:09:48;;;;;;;7.60;6.80;;;11.80;99.90;;;;;;5029875;28;20200;-59
2023/10/24 05:12:15;;;;;;;7.77;7.03;;;11.80;99.90;;;;;;5029868;28;20232;-59
2023/10/24 05:14:42;;;;;;;6.97;6.37;;;11.80;99.90;;;;;;5028399;28;20205;-59
2023/10/24 05:17:09;;;;;;;12.37;6.80;;;11.80;99.90;;;;;;5029077;28;20283;-59
2023/10/24 05:19:36;;;;;;;11.87;7.33;;;11.80;99.90;;;;;;5029215;28;20202;-59
2023/10/24 05:22:05;;;;;;;7.13;6.57;;;11.80;99.90;;;;;;5023927;28;20261;-59
2023/10/24 05:24:32;;;;;;;7.07;6.57;;;11.80;99.90;;;;;;5029892;28;20716;-59
2023/10/24 05:26:59;;;;;;;7.97;7.17;;;11.80;99.90;;;;;;5029585;28;20205;-59
2023/10/24 05:29:26;;;;;;;7.43;6.40;;;11.80;99.90;;;;;;5029336;28;20293;-59
2023/10/24 05:31:53;;;;;;;12.47;7.20;;;11.80;99.90;;;;;;5029388;28;20265;-59
2023/10/24 05:34:20;;;;;;;8.53;7.70;;;11.70;99.90;;;;;;5028861;28;20253;-59
2023/10/24 05:36:47;;;;;;;7.30;6.20;;;11.80;99.90;;;;;;5028469;28;20301;-59
2023/10/24 05:39:16;;;;;;;9.70;6.27;;;11.70;99.90;;;;;;5029122;28;20208;-59
2023/10/24 05:41:43;;;;;;;6.93;6.27;;;11.70;99.90;;;;;;5028990;28;20602;-60
2023/10/24 05:44:10;;;;;;;7.87;7.17;;;11.70;99.90;;;;;;5028854;28;20218;-58
2023/10/24 05:46:37;;;;;;;7.83;7.00;;;11.70;99.90;;;;;;5029274;28;20203;-59
2023/10/24 05:49:04;;;;;;;9.50;8.63;;;11.70;99.90;;;;;;5029013;28;20293;-59
2023/10/24 05:51:31;;;;;;;7.37;6.77;;;11.70;99.90;;;;;;5029029;28;20233;-59
2023/10/24 05:53:58;;;;;;;7.20;6.60;;;11.70;99.90;;;;;;5028226;28;20206;-59
2023/10/24 05:56:27;;;;;;;8.43;6.60;;;11.70;99.90;;;;;;5029373;28;20205;-59
2023/10/24 05:58:55;;;;;;;7.37;6.73;;;11.60;99.90;;;;;;5029413;28;20205;-59
2023/10/24 06:01:22;;;;;;;7.17;6.13;;;11.60;99.90;;;;;;5029001;28;20219;-59
2023/10/24 06:03:49;;;;;;;7.20;6.63;;;11.70;99.90;;;;;;5028884;28;20272;-59
2023/10/24 06:06:16;;;;;;;7.27;6.23;;;11.70;99.90;;;;;;5027989;28;20271;-59
2023/10/24 06:08:43;;;;;;;10.40;7.43;;;11.70;99.90;;;;;;5029063;28;20203;-60
2023/10/24 06:11:10;;;;;;;10.40;8.03;;;11.70;99.90;;;;;;5027876;28;20208;-59
2023/10/24 06:13:39;;;;;;;8.13;7.37;;;11.70;99.90;;;;;;5029433;28;20202;-59
2023/10/24 06:16:09;;;;;;;8.00;7.17;;;11.60;99.90;;;;;;5032450;28;20202;-59
2023/10/24 06:18:37;;;;;;;7.47;6.77;;;11.60;99.90;;;;;;5032830;28;20217;-59
2023/10/24 06:21:05;;;;;;;12.90;7.53;;;11.60;99.90;;;;;;5032550;28;20202;-59
2023/10/24 06:23:32;;;;;;;11.00;9.00;;;11.70;99.90;;;;;;5031965;28;20703;-59
2023/10/24 06:25:59;;;;;;;9.70;8.47;;;11.70;99.90;;;;;;5032582;28;20644;-59
2023/10/24 06:28:26;;;;;;;7.97;7.37;;;11.80;99.90;;;;;;5031693;28;20277;-57
2023/10/24 06:31:04;;;;;;;6.67;6.07;;;11.80;99.90;;;;;;5032360;28;20201;-58
2023/10/24 06:33:31;;;;;;;8.53;6.60;;;11.80;99.90;;;;;;5032384;28;20271;-60
2023/10/24 06:36:03;;;;;;;6.87;6.17;;;11.80;99.90;;;;;;5032515;28;20586;-57
2023/10/24 06:38:30;;;;;;;6.97;6.38;;;11.80;99.90;;;;;;5030649;28;20464;-57
2023/10/24 06:41:01;;;;;;;7.60;6.40;;;11.80;99.90;;;;;;5031322;28;20201;-57
2023/10/24 06:43:29;;;;;;;10.63;6.37;;;11.80;99.90;;;;;;5029588;28;20590;-57
2023/10/24 06:45:55;;;;;;;9.27;7.30;;;11.80;99.90;;;;;;5026057;28;20257;-57
2023/10/24 06:48:24;;;;;;;7.47;5.93;;;11.80;99.90;;;;;;5031599;28;20209;-57
2023/10/24 06:50:51;;;;;;;8.57;6.10;;;11.80;99.90;;;;;;5028338;28;20624;-57
2023/10/24 06:53:18;;;;;;;12.43;7.93;;;11.80;99.90;;;;;;5030841;28;20233;-57
2023/10/24 06:55:45;;;;;;;13.40;8.73;;;11.80;99.90;;;;;;5028645;28;20195;-59
2023/10/24 06:58:12;;;;;;;12.00;7.13;;;11.80;99.90;;;;;;5029006;28;20620;-59
2023/10/24 07:00:39;;;;;;;7.47;6.93;;;11.90;99.90;;;;;;5059269;22;20992;-69
2023/10/24 07:03:08;;;;;;;9.30;6.17;;;12.00;99.90;;;;;;5049615;28;20650;-71
2023/10/24 07:05:36;;;;;;;6.63;5.90;;;12.00;99.90;;;;;;5050612;28;20643;-68
2023/10/24 07:08:03;;;;;;;9.23;6.40;;;12.00;99.90;;;;;;5052999;28;20209;-69
2023/10/24 07:10:33;;;;;;;8.33;6.30;;;12.00;99.90;;;;;;5051741;28;20713;-68
2023/10/24 07:13:00;;;;;;;11.70;6.23;;;12.00;99.90;;;;;;5052532;28;20304;-65
2023/10/24 07:15:27;;;;;;;5.70;5.20;;;11.90;99.90;;;;;;5051297;28;20238;-58
2023/10/24 07:17:54;;;;;;;13.47;6.53;;;11.90;99.90;;;;;;5043607;28;20194;-58
2023/10/24 07:20:21;;;;;;;8.23;5.77;;;11.90;99.90;;;;;;5052497;28;20225;-57
2023/10/24 07:22:49;;;;;;;9.10;6.30;;;11.80;99.90;;;;;;5051832;28;20258;-57
2023/10/24 07:25:16;;;;;;;7.57;5.87;;;11.90;99.90;;;;;;5053015;28;20229;-57
2023/10/24 07:27:43;;;;;;;8.33;5.53;;;11.90;99.90;;;;;;5058532;28;20201;-57
2023/10/24 07:30:11;;;;;;;6.53;5.97;;;12.00;99.90;;;;;;5052768;28;20225;-57
2023/10/24 07:32:37;;;;;;;6.67;6.07;;;12.10;99.90;;;;;;5050657;28;20251;-57
2023/10/24 07:35:05;;;;;;;7.07;6.03;;;12.10;99.90;;;;;;5038129;28;20198;-59
2023/10/24 07:37:35;;;;;;;7.83;7.20;;;12.20;99.90;;;;;;5032894;28;20215;-59
2023/10/24 07:40:04;;;;;;;6.43;5.87;;;12.20;99.90;;;;;;5032858;28;20221;-59
2023/10/24 07:42:31;;;;;;;8.87;6.00;;;12.20;99.90;;;;;;5032873;28;20206;-59
2023/10/24 07:44:58;;;;;;;7.07;6.10;;;12.30;99.90;;;;;;5032228;28;20222;-60
2023/10/24 07:47:27;;;;;;;8.20;5.70;;;12.30;99.90;;;;;;5032731;28;20622;-59
2023/10/24 07:49:54;;;;;;;14.43;9.27;;;12.30;99.90;;;;;;5050590;28;20217;-59
2023/10/24 07:52:21;;;;;;;10.27;9.33;;;12.30;99.90;;;;;;5052577;28;20204;-59
2023/10/24 07:54:48;;;;;;;27.77;17.67;;;12.30;99.90;;;;;;5032274;28;20205;-57
2023/10/24 07:57:16;;;;;;;16.37;13.07;;;12.40;99.90;;;;;;5032501;28;20205;-59
2023/10/24 07:59:43;;;;;;;6.90;6.20;;;12.40;99.90;;;;;;5031931;28;20226;-59
2023/10/24 08:02:10;;;;;;;11.23;10.13;;;12.40;99.90;;;;;;5050947;28;20235;-57
2023/10/24 08:04:37;;;;;;;7.47;5.33;;;12.40;99.90;;;;;;5048097;28;20227;-57
2023/10/24 08:07:04;;;;;;;6.47;5.93;;;12.50;99.90;;;;;;5046477;28;20676;-57
2023/10/24 08:09:31;;;;;;;8.40;6.47;;;12.50;99.90;;;;;;5052771;28;20657;-57
2023/10/24 08:11:59;;;;;;;6.13;5.70;;;12.50;99.90;;;;;;5052301;28;20208;-59
2023/10/24 08:14:28;;;;;;;9.20;7.07;;;12.60;99.90;;;;;;5048711;28;20210;-57
2023/10/24 08:16:54;;;;;;;8.80;5.67;;;12.60;99.90;;;;;;5045009;28;20283;-59
2023/10/24 08:19:21;;;;;;;7.63;6.93;;;12.50;99.90;;;;;;5052035;28;20669;-57
2023/10/24 08:21:48;;;;;;;7.63;6.87;;;12.50;99.90;;;;;;5050789;28;20244;-58
2023/10/24 08:24:16;;;;;;;13.87;6.63;;;12.50;99.90;;;;;;5050831;28;20275;-57
2023/10/24 08:26:43;;;;;;;11.70;6.20;;;12.50;99.90;;;;;;5050843;28;20515;-57
2023/10/24 08:29:09;;;;;;;9.17;6.37;;;12.60;99.90;;;;;;5052280;28;20348;-57
2023/10/24 08:31:38;;;;;;;6.90;6.30;;;12.60;99.90;;;;;;5052123;28;20209;-59
2023/10/24 08:34:05;;;;;;;6.50;5.87;;;12.70;99.90;;;;;;5050884;28;20197;-57
2023/10/24 08:36:32;;;;;;;7.07;6.37;;;12.60;99.90;;;;;;5050861;28;20295;-57
2023/10/24 08:38:59;;;;;;;7.53;6.93;;;12.60;99.90;;;;;;5049210;28;20695;-59
2023/10/24 08:41:26;;;;;;;10.07;5.53;;;12.60;99.90;;;;;;5049669;28;20221;-57
2023/10/24 08:43:54;;;;;;;34.60;7.53;;;12.60;99.90;;;;;;5051140;28;20718;-58
2023/10/24 08:46:21;;;;;;;9.40;7.37;;;12.60;99.90;;;;;;5050822;28;20213;-57
2023/10/24 08:48:50;;;;;;;7.93;6.53;;;12.60;99.90;;;;;;5031674;28;20320;-59
2023/10/24 08:51:17;;;;;;;8.07;6.40;;;12.60;99.90;;;;;;5037612;28;20229;-57
2023/10/24 08:53:44;;;;;;;9.93;7.30;;;12.70;99.90;;;;;;5049386;28;20204;-57
2023/10/24 08:56:11;;;;;;;9.83;6.53;;;12.70;99.90;;;;;;5051331;28;20204;-57
2023/10/24 08:58:39;;;;;;;9.43;6.30;;;12.70;99.90;;;;;;5052005;28;20236;-58
2023/10/24 09:01:08;;;;;;;10.37;6.43;;;12.70;99.90;;;;;;5051549;28;20264;-57
2023/10/24 09:03:37;;;;;;;8.30;6.37;;;12.70;99.90;;;;;;5048974;28;20615;-57
2023/10/24 09:06:07;;;;;;;8.30;7.47;;;12.80;99.90;;;;;;5051427;28;20561;-57
2023/10/24 09:08:34;;;;;;;7.23;6.63;;;12.80;99.90;;;;;;5050872;28;20685;-57
2023/10/24 09:11:05;;;;;;;7.13;6.53;;;12.80;99.90;;;;;;5045257;28;20217;-57
2023/10/24 09:13:34;;;;;;;9.60;7.40;;;12.80;99.90;;;;;;5047364;28;20204;-57
2023/10/24 09:16:08;;;;;;;7.73;7.17;;;12.80;99.90;;;;;;5048530;28;20291;-57
2023/10/24 09:18:36;;;;;;;9.23;6.30;;;12.80;99.90;;;;;;5047635;28;20208;-57
2023/10/24 09:21:08;;;;;;;7.80;6.47;;;12.80;99.90;;;;;;5050847;28;20300;-57
2023/10/24 09:23:36;;;;;;;8.07;7.27;;;12.80;99.90;;;;;;5050942;28;20200;-57
2023/10/24 09:26:04;;;;;;;6.57;6.07;;;12.80;99.90;;;;;;5051473;28;20224;-58
2023/10/24 09:28:33;;;;;;;7.90;7.10;;;12.80;99.90;;;;;;5045992;28;20244;-58
2023/10/24 09:31:01;;;;;;;22.00;10.30;;;12.80;99.90;;;;;;5051089;28;20221;-57
2023/10/24 09:33:29;;;;;;;7.80;7.13;;;12.80;99.90;;;;;;5050853;28;20263;-58
2023/10/24 09:35:56;;;;;;;8.70;6.20;;;12.70;99.90;;;;;;5051332;28;20212;-58
2023/10/24 09:38:26;;;;;;;7.50;6.80;;;12.80;99.90;;;;;;5049478;28;23065;-57
2023/10/24 09:40:54;;;;;;;7.77;6.70;;;12.80;99.90;;;;;;5051071;28;20310;-57
2023/10/24 09:43:23;;;;;;;8.97;7.23;;;12.80;99.90;;;;;;5049256;28;20201;-58
2023/10/24 09:45:51;;;;;;;9.77;7.00;;;12.90;99.90;;;;;;5046058;28;20760;-57
2023/10/24 09:48:21;;;;;;;8.20;7.43;;;12.90;99.90;;;;;;5053408;28;20250;-57
2023/10/24 09:50:49;;;;;;;8.53;6.90;;;12.90;99.90;;;;;;5054378;28;20301;-57
2023/10/24 09:53:18;;;;;;;10.73;7.53;;;13.00;99.90;;;;;;5054266;28;20253;-57
2023/10/24 09:55:49;;;;;;;10.83;7.33;;;13.00;99.90;;;;;;5054741;28;20190;-57
2023/10/24 09:58:17;;;;;;;9.10;8.00;;;13.00;99.90;;;;;;5054829;28;20204;-58
2023/10/24 10:00:45;;;;;;;10.27;7.40;;;13.10;99.90;;;;;;5051575;28;20234;-57
2023/10/24 10:03:13;;;;;;;9.40;7.27;;;13.10;99.90;;;;;;5054232;28;20202;-57
2023/10/24 10:05:41;;;;;;;10.80;8.13;;;13.10;99.90;;;;;;5054482;28;20701;-57
2023/10/24 10:08:09;;;;;;;10.40;9.40;;;13.20;99.90;;;;;;5053425;28;20289;-57
2023/10/24 10:10:38;;;;;;;12.87;7.83;;;13.20;99.90;;;;;;5054201;28;20259;-57
2023/10/24 10:13:11;;;;;;;12.67;8.23;;;13.20;99.90;;;;;;5053910;28;20199;-57
2023/10/24 10:15:51;;;;;;;7.93;7.20;;;13.20;99.90;;;;;;5054182;28;20656;-57
2023/10/24 10:18:29;;;;;;;10.23;9.23;;;13.20;99.90;;;;;;5050371;28;20250;-57
2023/10/24 10:21:10;;;;;;;9.10;8.10;;;13.20;99.90;;;;;;5053601;28;20217;-57
2023/10/24 10:23:54;;;;;;;9.20;8.27;;;13.20;99.90;;;;;;5053132;28;20214;-58
2023/10/24 10:26:24;;;;;;;9.37;8.40;;;13.30;99.90;;;;;;5051896;28;20204;-57
2023/10/24 10:29:06;;;;;;;9.43;8.63;;;13.20;99.90;;;;;;5045525;28;20200;-57
2023/10/24 10:31:50;;;;;;;12.50;9.53;;;13.20;99.90;;;;;;5050679;28;20232;-57
2023/10/24 10:34:17;;;;;;;9.77;7.97;;;13.30;99.90;;;;;;5044082;28;20285;-57
2023/10/24 10:36:54;;;;;;;9.73;7.93;;;13.30;99.90;;;;;;5045163;28;20286;-57
2023/10/24 10:39:21;;;;;;;16.07;11.60;;;13.30;99.90;;;;;;5038934;28;20226;-57
2023/10/24 10:41:48;;;;;;;15.93;9.27;;;13.30;99.90;;;;;;5053489;28;20205;-57
2023/10/24 10:44:49;;;;;;;27.37;11.03;;;13.30;99.90;;;;;;5053152;28;20205;-58
2023/10/24 10:47:16;;;;;;;18.40;7.87;;;13.30;99.90;;;;;;4992075;28;20203;-57
2023/10/24 10:49:49;;;;;;;12.37;7.37;;;13.30;99.90;;;;;;4990984;28;20230;-57
2023/10/24 10:52:52;;;;;;;8.30;7.37;;;13.30;99.90;;;;;;5019880;28;20201;-57
2023/10/24 10:55:54;;;;;;;10.67;7.93;;;13.30;99.90;;;;;;4972530;28;20258;-58
2023/10/24 10:58:24;;;;;;;9.77;8.77;;;13.30;99.90;;;;;;4977829;28;20434;-68
2023/10/24 11:01:11;;;;;;;8.10;7.40;;;13.40;99.90;;;;;;5027817;28;20263;-68
2023/10/24 11:03:39;;;;;;;9.47;7.83;;;13.40;99.90;;;;;;5051616;28;20224;-72
2023/10/24 11:06:12;;;;;;;11.57;8.93;;;13.30;99.90;;;;;;5048439;28;20268;-67
2023/10/24 11:08:41;;;;;;;10.37;7.97;;;13.30;99.90;;;;;;5044784;28;20266;-67
2023/10/24 11:11:10;;;;;;;7.80;6.53;;;13.30;99.90;;;;;;5052507;28;20249;-66
2023/10/24 11:13:40;;;;;;;9.20;8.20;;;13.30;99.90;;;;;;5050590;28;20629;-65
2023/10/24 11:16:09;;;;;;;12.03;9.10;;;13.20;99.90;;;;;;5045123;28;20224;-64
2023/10/24 11:18:37;;;;;;;12.33;8.43;;;13.20;99.90;;;;;;5053180;28;20235;-65
2023/10/24 11:21:09;;;;;;;10.10;8.27;;;13.20;99.90;;;;;;5053101;28;20221;-64
2023/10/24 11:23:37;;;;;;;7.40;6.70;;;13.20;99.90;;;;;;5052252;28;20201;-64
2023/10/24 11:26:08;;;;;;;9.17;8.23;;;13.20;99.90;;;;;;5052672;28;20220;-64
2023/10/24 11:28:35;;;;;;;7.60;7.00;;;13.20;99.90;;;;;;5050364;28;20687;-65
2023/10/24 11:31:22;;;;;;;9.13;7.20;;;13.10;99.90;;;;;;5045800;28;20220;-70
2023/10/24 11:33:49;;;;;;;8.83;7.87;;;13.10;99.90;;;;;;5052351;28;20211;-66
2023/10/24 11:36:17;;;;;;;9.07;8.27;;;13.10;99.90;;;;;;5052731;28;20200;-66
2023/10/24 11:38:45;;;;;;;10.93;9.83;;;13.10;99.90;;;;;;5052857;28;20209;-66
2023/10/24 11:41:12;;;;;;;11.80;9.10;;;13.10;99.90;;;;;;5052634;28;20225;-67
2023/10/24 11:43:39;;;;;;;15.37;10.13;;;13.10;99.90;;;;;;5050450;28;20208;-67
2023/10/24 11:46:07;;;;;;;13.47;10.07;;;13.00;99.90;;;;;;5044103;28;20265;-62
2023/10/24 11:48:35;;;;;;;9.53;8.33;;;13.00;99.90;;;;;;5044603;28;20672;-67
2023/10/24 11:51:06;;;;;;;11.00;9.13;;;12.90;99.90;;;;;;5052113;28;20278;-67
2023/10/24 11:53:34;;;;;;;9.03;8.07;;;12.80;99.90;;;;;;5052172;28;20209;-68
2023/10/24 11:56:01;;;;;;;11.03;9.17;;;12.70;99.90;;;;;;5039282;28;20684;-70
2023/10/24 11:58:32;;;;;;;11.17;8.43;;;12.70;99.90;;;;;;5032316;28;20263;-66
2023/10/24 12:01:00;;;;;;;15.70;12.83;;;12.60;99.90;;;;;;5037625;28;20305;-67
2023/10/24 12:03:27;;;;;;;11.93;9.53;;;12.70;99.90;;;;;;5043963;28;20213;-68
2023/10/24 12:05:56;;;;;;;14.30;11.47;;;12.80;99.90;;;;;;5033090;28;20267;-68
2023/10/24 12:08:26;;;;;;;13.03;11.53;;;12.80;99.90;;;;;;5032354;28;20206;-70
2023/10/24 12:10:54;;;;;;;13.27;11.93;;;12.80;99.90;;;;;;5041240;28;20309;-68
2023/10/24 12:13:22;;;;;;;14.17;10.27;;;12.80;99.90;;;;;;5043382;28;20200;-68
2023/10/24 12:15:49;;;;;;;17.00;14.00;;;12.80;99.90;;;;;;5049414;28;20190;-67
2023/10/24 12:18:16;;;;;;;12.60;11.30;;;12.70;99.90;;;;;;5050658;28;20248;-68
2023/10/24 12:20:43;;;;;;;15.70;12.30;;;12.80;99.90;;;;;;5043377;28;20252;-69
2023/10/24 12:23:11;;;;;;;20.17;12.33;;;12.80;99.90;;;;;;5051437;28;20266;-66
2023/10/24 12:25:38;;;;;;;10.07;8.53;;;12.80;99.90;;;;;;5051577;28;20214;-67
2023/10/24 12:28:05;;;;;;;8.90;8.00;;;12.80;99.90;;;;;;5051717;28;20205;-68
2023/10/24 12:30:32;;;;;;;11.57;10.37;;;12.70;99.90;;;;;;5049317;28;20274;-66
2023/10/24 12:32:59;;;;;;;12.93;9.43;;;12.80;99.90;;;;;;5039609;28;20232;-67
2023/10/24 12:35:27;;;;;;;11.47;10.30;;;12.80;99.90;;;;;;5051402;28;20241;-68
2023/10/24 12:37:55;;;;;;;9.43;8.53;;;12.80;99.90;;;;;;5043860;28;20550;-69
2023/10/24 12:40:23;;;;;;;8.30;7.50;;;12.80;99.90;;;;;;5051407;28;20220;-71
2023/10/24 12:42:50;;;;;;;8.47;7.73;;;12.80;99.90;;;;;;5051308;28;20243;-68
2023/10/24 12:45:17;;;;;;;3.80;3.13;;;12.90;99.90;;;;;;5042870;28;20367;-66
2023/10/24 12:47:44;;;;;;;6.40;3.93;;;12.90;99.90;;;;;;5049671;28;20212;-67
2023/10/24 12:50:11;;;;;;;3.77;2.50;;;12.80;99.90;;;;;;5037071;28;20225;-64